sensor_id;sensor_type;location;lat;lon;timestamp;temperature;humidity
3136;DHT22;1578;47.658;9.922;2023-08-12T00:01:18;15.80;91.30
3136;DHT22;1578;47.658;9.922;2023-08-12T00:03:47;15.70;90.80
3136;DHT22;1578;47.658;9.922;2023-08-12T00:06:13;15.70;91.00
3136;DHT22;1578;47.658;9.922;2023-08-12T00:08:39;15.70;91.30
3136;DHT22;1578;47.658;9.922;2023-08-12T00:11:04;15.70;91.50
3136;DHT22;1578;47.658;9.922;2023-08-12T00:13:30;15.60;90.70
3136;DHT22;1578;47.658;9.922;2023-08-12T00:15:56;15.60;91.20
3136;DHT22;1578;47.658;9.922;2023-08-12T00:18:22;15.60;91.00
3136;DHT22;1578;47.658;9.922;2023-08-12T00:20:48;15.60;90.80
3136;DHT22;1578;47.658;9.922;2023-08-12T00:23:14;15.70;90.30
3136;DHT22;1578;47.658;9.922;2023-08-12T00:25:39;15.60;89.90
3136;DHT22;1578;47.658;9.922;2023-08-12T00:28:05;15.60;88.60
3136;DHT22;1578;47.658;9.922;2023-08-12T00:30:30;15.60;90.10
3136;DHT22;1578;47.658;9.922;2023-08-12T00:32:56;15.60;90.70
3136;DHT22;1578;47.658;9.922;2023-08-12T00:35:22;15.50;90.10
3136;DHT22;1578;47.658;9.922;2023-08-12T00:37:47;15.40;90.70
3136;DHT22;1578;47.658;9.922;2023-08-12T00:40:13;15.40;90.70
3136;DHT22;1578;47.658;9.922;2023-08-12T00:42:39;15.30;91.10
3136;DHT22;1578;47.658;9.922;2023-08-12T00:45:09;15.30;91.10
3136;DHT22;1578;47.658;9.922;2023-08-12T00:47:36;15.30;91.70
3136;DHT22;1578;47.658;9.922;2023-08-12T00:50:02;15.30;91.50
3136;DHT22;1578;47.658;9.922;2023-08-12T00:52:28;15.30;91.10
3136;DHT22;1578;47.658;9.922;2023-08-12T00:54:53;15.20;91.30
3136;DHT22;1578;47.658;9.922;2023-08-12T00:57:19;15.20;91.90
3136;DHT22;1578;47.658;9.922;2023-08-12T00:59:45;15.20;92.50
3136;DHT22;1578;47.658;9.922;2023-08-12T01:02:12;15.20;92.40
3136;DHT22;1578;47.658;9.922;2023-08-12T01:04:37;15.20;92.70
3136;DHT22;1578;47.658;9.922;2023-08-12T01:07:03;15.20;92.50
3136;DHT22;1578;47.658;9.922;2023-08-12T01:09:29;15.20;92.40
3136;DHT22;1578;47.658;9.922;2023-08-12T01:12:13;15.20;91.80
3136;DHT22;1578;47.658;9.922;2023-08-12T01:15:14;15.30;91.80
3136;DHT22;1578;47.658;9.922;2023-08-12T01:17:42;15.20;91.60
3136;DHT22;1578;47.658;9.922;2023-08-12T01:20:11;15.20;91.60
3136;DHT22;1578;47.658;9.922;2023-08-12T01:22:41;15.20;91.50
3136;DHT22;1578;47.658;9.922;2023-08-12T01:25:08;15.20;91.30
3136;DHT22;1578;47.658;9.922;2023-08-12T01:27:35;15.20;91.20
3136;DHT22;1578;47.658;9.922;2023-08-12T01:30:02;15.20;91.40
3136;DHT22;1578;47.658;9.922;2023-08-12T01:32:41;15.20;91.10
3136;DHT22;1578;47.658;9.922;2023-08-12T01:35:18;15.10;91.00
3136;DHT22;1578;47.658;9.922;2023-08-12T01:37:46;15.10;91.20
3136;DHT22;1578;47.658;9.922;2023-08-12T01:40:13;15.10;91.00
3136;DHT22;1578;47.658;9.922;2023-08-12T01:42:40;15.00;91.60
3136;DHT22;1578;47.658;9.922;2023-08-12T01:45:07;14.90;92.10
3136;DHT22;1578;47.658;9.922;2023-08-12T01:47:32;14.90;92.40
3136;DHT22;1578;47.658;9.922;2023-08-12T01:49:58;14.80;92.80
3136;DHT22;1578;47.658;9.922;2023-08-12T01:52:24;14.80;93.00
3136;DHT22;1578;47.658;9.922;2023-08-12T01:54:51;14.80;93.30
3136;DHT22;1578;47.658;9.922;2023-08-12T01:57:16;14.80;93.70
3136;DHT22;1578;47.658;9.922;2023-08-12T01:59:42;14.80;94.10
3136;DHT22;1578;47.658;9.922;2023-08-12T02:02:11;14.80;93.80
3136;DHT22;1578;47.658;9.922;2023-08-12T02:04:40;14.80;94.10
3136;DHT22;1578;47.658;9.922;2023-08-12T02:07:08;14.80;94.10
3136;DHT22;1578;47.658;9.922;2023-08-12T02:09:34;14.70;93.60
3136;DHT22;1578;47.658;9.922;2023-08-12T02:11:59;14.60;94.20
3136;DHT22;1578;47.658;9.922;2023-08-12T02:14:25;14.60;95.60
3136;DHT22;1578;47.658;9.922;2023-08-12T02:16:51;14.70;95.00
3136;DHT22;1578;47.658;9.922;2023-08-12T02:19:16;14.80;94.80
3136;DHT22;1578;47.658;9.922;2023-08-12T02:21:42;14.80;94.30
3136;DHT22;1578;47.658;9.922;2023-08-12T02:24:09;14.70;94.80
3136;DHT22;1578;47.658;9.922;2023-08-12T02:26:35;14.80;94.00
3136;DHT22;1578;47.658;9.922;2023-08-12T02:29:00;14.80;94.50
3136;DHT22;1578;47.658;9.922;2023-08-12T02:31:26;14.90;93.20
3136;DHT22;1578;47.658;9.922;2023-08-12T02:33:52;14.90;92.60
3136;DHT22;1578;47.658;9.922;2023-08-12T02:36:17;14.90;92.50
3136;DHT22;1578;47.658;9.922;2023-08-12T02:38:43;14.80;92.40
3136;DHT22;1578;47.658;9.922;2023-08-12T02:41:09;14.60;92.60
3136;DHT22;1578;47.658;9.922;2023-08-12T02:43:34;14.50;93.20
3136;DHT22;1578;47.658;9.922;2023-08-12T02:46:00;14.40;93.90
3136;DHT22;1578;47.658;9.922;2023-08-12T02:48:26;14.40;94.10
3136;DHT22;1578;47.658;9.922;2023-08-12T02:50:51;14.30;94.40
3136;DHT22;1578;47.658;9.922;2023-08-12T02:53:17;14.30;94.60
3136;DHT22;1578;47.658;9.922;2023-08-12T02:55:45;14.30;94.70
3136;DHT22;1578;47.658;9.922;2023-08-12T02:58:13;14.40;94.90
3136;DHT22;1578;47.658;9.922;2023-08-12T03:00:42;14.50;94.90
3136;DHT22;1578;47.658;9.922;2023-08-12T03:03:11;14.60;94.40
3136;DHT22;1578;47.658;9.922;2023-08-12T03:05:36;14.50;93.90
3136;DHT22;1578;47.658;9.922;2023-08-12T03:08:02;14.40;94.00
3136;DHT22;1578;47.658;9.922;2023-08-12T03:10:29;14.40;95.00
3136;DHT22;1578;47.658;9.922;2023-08-12T03:12:55;14.40;95.50
3136;DHT22;1578;47.658;9.922;2023-08-12T03:15:21;14.50;94.80
3136;DHT22;1578;47.658;9.922;2023-08-12T03:17:46;14.60;94.40
3136;DHT22;1578;47.658;9.922;2023-08-12T03:20:12;14.70;93.90
3136;DHT22;1578;47.658;9.922;2023-08-12T03:22:38;14.60;94.00
3136;DHT22;1578;47.658;9.922;2023-08-12T03:25:05;14.70;93.60
3136;DHT22;1578;47.658;9.922;2023-08-12T03:27:30;14.70;93.60
3136;DHT22;1578;47.658;9.922;2023-08-12T03:29:56;14.70;93.80
3136;DHT22;1578;47.658;9.922;2023-08-12T03:32:23;14.80;94.80
3136;DHT22;1578;47.658;9.922;2023-08-12T03:34:49;14.90;94.10
3136;DHT22;1578;47.658;9.922;2023-08-12T03:37:15;14.90;93.90
3136;DHT22;1578;47.658;9.922;2023-08-12T03:39:40;14.90;93.90
3136;DHT22;1578;47.658;9.922;2023-08-12T03:42:06;14.90;93.50
3136;DHT22;1578;47.658;9.922;2023-08-12T03:44:31;14.90;93.70
3136;DHT22;1578;47.658;9.922;2023-08-12T03:46:57;14.90;93.80
3136;DHT22;1578;47.658;9.922;2023-08-12T03:49:23;15.00;93.00
3136;DHT22;1578;47.658;9.922;2023-08-12T03:51:48;14.80;93.60
3136;DHT22;1578;47.658;9.922;2023-08-12T03:54:14;15.00;93.70
3136;DHT22;1578;47.658;9.922;2023-08-12T03:56:39;15.00;92.90
3136;DHT22;1578;47.658;9.922;2023-08-12T03:59:05;15.00;93.20
3136;DHT22;1578;47.658;9.922;2023-08-12T04:01:30;15.10;93.00
3136;DHT22;1578;47.658;9.922;2023-08-12T04:03:56;15.10;92.70
3136;DHT22;1578;47.658;9.922;2023-08-12T04:06:22;15.20;92.20
3136;DHT22;1578;47.658;9.922;2023-08-12T04:08:47;15.20;91.80
3136;DHT22;1578;47.658;9.922;2023-08-12T04:11:13;15.30;91.90
3136;DHT22;1578;47.658;9.922;2023-08-12T04:13:38;15.30;91.40
3136;DHT22;1578;47.658;9.922;2023-08-12T04:16:04;15.30;91.10
3136;DHT22;1578;47.658;9.922;2023-08-12T04:18:29;15.20;91.10
3136;DHT22;1578;47.658;9.922;2023-08-12T04:20:55;15.10;91.80
3136;DHT22;1578;47.658;9.922;2023-08-12T04:23:21;15.00;92.20
3136;DHT22;1578;47.658;9.922;2023-08-12T04:25:47;15.00;92.90
3136;DHT22;1578;47.658;9.922;2023-08-12T04:28:14;14.90;92.90
3136;DHT22;1578;47.658;9.922;2023-08-12T04:30:42;14.90;93.20
3136;DHT22;1578;47.658;9.922;2023-08-12T04:33:07;14.90;93.30
3136;DHT22;1578;47.658;9.922;2023-08-12T04:35:33;14.80;93.20
3136;DHT22;1578;47.658;9.922;2023-08-12T04:37:58;14.70;94.00
3136;DHT22;1578;47.658;9.922;2023-08-12T04:40:24;14.80;93.90
3136;DHT22;1578;47.658;9.922;2023-08-12T04:42:50;14.90;93.00
3136;DHT22;1578;47.658;9.922;2023-08-12T04:45:15;15.00;93.10
3136;DHT22;1578;47.658;9.922;2023-08-12T04:47:41;15.00;93.10
3136;DHT22;1578;47.658;9.922;2023-08-12T04:50:07;15.10;92.80
3136;DHT22;1578;47.658;9.922;2023-08-12T04:52:33;15.20;92.50
3136;DHT22;1578;47.658;9.922;2023-08-12T04:54:59;15.20;92.90
3136;DHT22;1578;47.658;9.922;2023-08-12T04:57:25;15.20;93.00
3136;DHT22;1578;47.658;9.922;2023-08-12T04:59:51;15.20;93.00
3136;DHT22;1578;47.658;9.922;2023-08-12T05:02:16;15.30;93.10
3136;DHT22;1578;47.658;9.922;2023-08-12T05:04:50;15.30;93.10
3136;DHT22;1578;47.658;9.922;2023-08-12T05:07:16;15.30;93.10
3136;DHT22;1578;47.658;9.922;2023-08-12T05:09:42;15.20;93.10
3136;DHT22;1578;47.658;9.922;2023-08-12T05:12:10;15.30;93.60
3136;DHT22;1578;47.658;9.922;2023-08-12T05:14:36;15.50;92.80
3136;DHT22;1578;47.658;9.922;2023-08-12T05:17:02;15.50;92.40
3136;DHT22;1578;47.658;9.922;2023-08-12T05:19:28;15.60;92.50
3136;DHT22;1578;47.658;9.922;2023-08-12T05:21:53;15.70;92.40
3136;DHT22;1578;47.658;9.922;2023-08-12T05:24:19;15.70;92.40
3136;DHT22;1578;47.658;9.922;2023-08-12T05:26:44;15.80;92.20
3136;DHT22;1578;47.658;9.922;2023-08-12T05:29:10;15.90;92.00
3136;DHT22;1578;47.658;9.922;2023-08-12T05:31:36;16.00;92.70
3136;DHT22;1578;47.658;9.922;2023-08-12T05:34:02;16.20;91.50
3136;DHT22;1578;47.658;9.922;2023-08-12T05:36:28;16.30;90.60
3136;DHT22;1578;47.658;9.922;2023-08-12T05:38:54;16.50;91.30
3136;DHT22;1578;47.658;9.922;2023-08-12T05:41:20;16.60;90.80
3136;DHT22;1578;47.658;9.922;2023-08-12T05:43:45;16.60;90.90
3136;DHT22;1578;47.658;9.922;2023-08-12T05:46:11;16.70;90.40
3136;DHT22;1578;47.658;9.922;2023-08-12T05:48:36;16.90;89.70
3136;DHT22;1578;47.658;9.922;2023-08-12T05:51:02;17.00;88.20
3136;DHT22;1578;47.658;9.922;2023-08-12T05:53:28;17.10;88.40
3136;DHT22;1578;47.658;9.922;2023-08-12T05:55:53;17.20;87.80
3136;DHT22;1578;47.658;9.922;2023-08-12T05:58:19;17.30;87.70
3136;DHT22;1578;47.658;9.922;2023-08-12T06:00:46;17.50;85.80
3136;DHT22;1578;47.658;9.922;2023-08-12T06:03:12;17.70;86.00
3136;DHT22;1578;47.658;9.922;2023-08-12T06:05:38;17.90;86.20
3136;DHT22;1578;47.658;9.922;2023-08-12T06:08:04;18.20;79.90
3136;DHT22;1578;47.658;9.922;2023-08-12T06:10:29;18.20;75.90
3136;DHT22;1578;47.658;9.922;2023-08-12T06:12:55;18.20;80.40
3136;DHT22;1578;47.658;9.922;2023-08-12T06:15:20;18.30;82.10
3136;DHT22;1578;47.658;9.922;2023-08-12T06:17:46;18.40;78.30
3136;DHT22;1578;47.658;9.922;2023-08-12T06:20:12;18.60;77.90
3136;DHT22;1578;47.658;9.922;2023-08-12T06:22:37;18.60;79.50
3136;DHT22;1578;47.658;9.922;2023-08-12T06:25:03;18.70;79.20
3136;DHT22;1578;47.658;9.922;2023-08-12T06:27:29;18.80;78.70
3136;DHT22;1578;47.658;9.922;2023-08-12T06:29:55;18.90;78.10
3136;DHT22;1578;47.658;9.922;2023-08-12T06:32:20;19.00;78.20
3136;DHT22;1578;47.658;9.922;2023-08-12T06:34:46;19.20;75.60
3136;DHT22;1578;47.658;9.922;2023-08-12T06:37:11;19.30;74.50
3136;DHT22;1578;47.658;9.922;2023-08-12T06:39:37;19.60;73.60
3136;DHT22;1578;47.658;9.922;2023-08-12T06:42:03;19.80;73.50
3136;DHT22;1578;47.658;9.922;2023-08-12T06:44:29;20.20;69.40
3136;DHT22;1578;47.658;9.922;2023-08-12T06:46:54;20.60;69.50
3136;DHT22;1578;47.658;9.922;2023-08-12T06:49:20;21.10;62.60
3136;DHT22;1578;47.658;9.922;2023-08-12T06:51:46;21.50;54.60
3136;DHT22;1578;47.658;9.922;2023-08-12T06:54:12;21.70;53.40
3136;DHT22;1578;47.658;9.922;2023-08-12T06:56:37;21.80;52.00
3136;DHT22;1578;47.658;9.922;2023-08-12T06:59:03;21.90;52.60
3136;DHT22;1578;47.658;9.922;2023-08-12T07:01:29;21.90;52.60
3136;DHT22;1578;47.658;9.922;2023-08-12T07:03:54;22.00;54.20
3136;DHT22;1578;47.658;9.922;2023-08-12T07:06:20;22.30;51.50
3136;DHT22;1578;47.658;9.922;2023-08-12T07:08:47;22.40;48.20
3136;DHT22;1578;47.658;9.922;2023-08-12T07:11:13;22.50;47.80
3136;DHT22;1578;47.658;9.922;2023-08-12T07:13:38;22.50;43.80
3136;DHT22;1578;47.658;9.922;2023-08-12T07:16:04;22.50;44.00
3136;DHT22;1578;47.658;9.922;2023-08-12T07:18:30;22.50;41.70
3136;DHT22;1578;47.658;9.922;2023-08-12T07:20:56;22.60;40.30
3136;DHT22;1578;47.658;9.922;2023-08-12T07:23:23;22.40;44.50
3136;DHT22;1578;47.658;9.922;2023-08-12T07:25:50;22.40;48.20
3136;DHT22;1578;47.658;9.922;2023-08-12T07:28:15;22.60;48.40
3136;DHT22;1578;47.658;9.922;2023-08-12T07:30:41;22.90;45.30
3136;DHT22;1578;47.658;9.922;2023-08-12T07:33:07;23.30;44.90
3136;DHT22;1578;47.658;9.922;2023-08-12T07:35:33;23.70;37.20
3136;DHT22;1578;47.658;9.922;2023-08-12T07:37:59;24.10;39.40
3136;DHT22;1578;47.658;9.922;2023-08-12T07:40:24;24.40;35.90
3136;DHT22;1578;47.658;9.922;2023-08-12T07:42:51;24.70;31.30
3136;DHT22;1578;47.658;9.922;2023-08-12T07:45:17;25.20;27.90
3136;DHT22;1578;47.658;9.922;2023-08-12T07:47:43;25.60;26.80
3136;DHT22;1578;47.658;9.922;2023-08-12T07:50:09;26.00;26.10
3136;DHT22;1578;47.658;9.922;2023-08-12T07:52:36;26.30;24.70
3136;DHT22;1578;47.658;9.922;2023-08-12T07:55:02;26.50;22.40
3136;DHT22;1578;47.658;9.922;2023-08-12T07:57:27;26.70;20.30
3136;DHT22;1578;47.658;9.922;2023-08-12T07:59:53;26.60;21.80
3136;DHT22;1578;47.658;9.922;2023-08-12T08:02:19;26.70;18.40
3136;DHT22;1578;47.658;9.922;2023-08-12T08:04:44;26.60;19.20
3136;DHT22;1578;47.658;9.922;2023-08-12T08:07:14;26.60;18.20
3136;DHT22;1578;47.658;9.922;2023-08-12T08:09:39;26.60;17.90
3136;DHT22;1578;47.658;9.922;2023-08-12T08:12:07;26.70;19.20
3136;DHT22;1578;47.658;9.922;2023-08-12T08:14:32;26.70;20.10
3136;DHT22;1578;47.658;9.922;2023-08-12T08:16:58;26.90;17.40
3136;DHT22;1578;47.658;9.922;2023-08-12T08:19:24;27.00;19.00
3136;DHT22;1578;47.658;9.922;2023-08-12T08:21:49;27.10;18.60
3136;DHT22;1578;47.658;9.922;2023-08-12T08:24:15;27.00;15.30
3136;DHT22;1578;47.658;9.922;2023-08-12T08:26:41;27.00;19.40
3136;DHT22;1578;47.658;9.922;2023-08-12T08:29:07;26.90;17.50
3136;DHT22;1578;47.658;9.922;2023-08-12T08:31:32;26.80;14.70
3136;DHT22;1578;47.658;9.922;2023-08-12T08:33:58;26.00;19.80
3136;DHT22;1578;47.658;9.922;2023-08-12T08:36:24;26.00;18.40
3136;DHT22;1578;47.658;9.922;2023-08-12T08:38:50;26.00;23.60
3136;DHT22;1578;47.658;9.922;2023-08-12T08:41:16;26.20;19.00
3136;DHT22;1578;47.658;9.922;2023-08-12T08:43:43;26.30;19.00
3136;DHT22;1578;47.658;9.922;2023-08-12T08:46:14;26.40;18.50
3136;DHT22;1578;47.658;9.922;2023-08-12T08:48:42;26.50;15.90
3136;DHT22;1578;47.658;9.922;2023-08-12T08:51:10;26.50;14.10
3136;DHT22;1578;47.658;9.922;2023-08-12T08:53:38;26.40;16.70
3136;DHT22;1578;47.658;9.922;2023-08-12T08:56:07;26.20;16.00
3136;DHT22;1578;47.658;9.922;2023-08-12T08:58:34;25.90;18.70
3136;DHT22;1578;47.658;9.922;2023-08-12T09:00:59;25.70;18.90
3136;DHT22;1578;47.658;9.922;2023-08-12T09:03:26;25.80;23.00
3136;DHT22;1578;47.658;9.922;2023-08-12T09:05:55;25.90;19.40
3136;DHT22;1578;47.658;9.922;2023-08-12T09:08:23;26.00;19.20
3136;DHT22;1578;47.658;9.922;2023-08-12T09:10:50;26.10;18.90
3136;DHT22;1578;47.658;9.922;2023-08-12T09:13:15;26.40;18.50
3136;DHT22;1578;47.658;9.922;2023-08-12T09:15:43;26.40;15.50
3136;DHT22;1578;47.658;9.922;2023-08-12T09:18:09;26.20;20.20
3136;DHT22;1578;47.658;9.922;2023-08-12T09:20:35;26.10;18.90
3136;DHT22;1578;47.658;9.922;2023-08-12T09:23:01;26.10;16.40
3136;DHT22;1578;47.658;9.922;2023-08-12T09:25:28;26.10;18.90
3136;DHT22;1578;47.658;9.922;2023-08-12T09:28:00;26.10;18.00
3136;DHT22;1578;47.658;9.922;2023-08-12T09:30:29;26.30;19.40
3136;DHT22;1578;47.658;9.922;2023-08-12T09:33:03;26.20;14.80
3136;DHT22;1578;47.658;9.922;2023-08-12T09:37:58;26.20;17.90
3136;DHT22;1578;47.658;9.922;2023-08-12T09:40:24;26.30;19.00
3136;DHT22;1578;47.658;9.922;2023-08-12T09:42:50;26.30;19.10
3136;DHT22;1578;47.658;9.922;2023-08-12T09:45:15;26.50;18.80
3136;DHT22;1578;47.658;9.922;2023-08-12T09:47:44;26.60;18.10
3136;DHT22;1578;47.658;9.922;2023-08-12T09:50:09;26.80;15.00
3136;DHT22;1578;47.658;9.922;2023-08-12T09:52:35;26.70;14.50
3136;DHT22;1578;47.658;9.922;2023-08-12T09:55:02;26.60;13.60
3136;DHT22;1578;47.658;9.922;2023-08-12T09:57:33;26.70;14.80
3136;DHT22;1578;47.658;9.922;2023-08-12T10:00:02;27.20;16.10
3136;DHT22;1578;47.658;9.922;2023-08-12T10:02:29;27.50;11.20
3136;DHT22;1578;47.658;9.922;2023-08-12T10:04:56;28.00;13.40
3136;DHT22;1578;47.658;9.922;2023-08-12T10:10:46;27.70;11.30
3136;DHT22;1578;47.658;9.922;2023-08-12T10:13:12;27.20;12.80
3136;DHT22;1578;47.658;9.922;2023-08-12T10:15:37;26.80;15.40
3136;DHT22;1578;47.658;9.922;2023-08-12T10:18:05;26.50;14.70
3136;DHT22;1578;47.658;9.922;2023-08-12T10:20:31;26.40;17.80
3136;DHT22;1578;47.658;9.922;2023-08-12T10:22:59;26.50;17.00
3136;DHT22;1578;47.658;9.922;2023-08-12T10:25:33;26.60;14.80
3136;DHT22;1578;47.658;9.922;2023-08-12T10:28:00;26.90;17.10
3136;DHT22;1578;47.658;9.922;2023-08-12T10:30:29;27.10;13.90
3136;DHT22;1578;47.658;9.922;2023-08-12T10:32:55;27.10;15.80
3136;DHT22;1578;47.658;9.922;2023-08-12T10:35:20;27.30;13.50
3136;DHT22;1578;47.658;9.922;2023-08-12T10:37:50;27.30;17.10
3136;DHT22;1578;47.658;9.922;2023-08-12T10:40:21;27.50;14.60
3136;DHT22;1578;47.658;9.922;2023-08-12T10:42:48;27.60;13.10
3136;DHT22;1578;47.658;9.922;2023-08-12T10:45:17;27.50;14.80
3136;DHT22;1578;47.658;9.922;2023-08-12T10:47:48;27.70;14.80
3136;DHT22;1578;47.658;9.922;2023-08-12T10:50:25;28.00;10.60
3136;DHT22;1578;47.658;9.922;2023-08-12T10:52:53;27.90;10.20
3136;DHT22;1578;47.658;9.922;2023-08-12T10:55:23;27.80;11.80
3136;DHT22;1578;47.658;9.922;2023-08-12T10:57:53;28.00;10.30
3136;DHT22;1578;47.658;9.922;2023-08-12T11:00:23;27.80;9.90
3136;DHT22;1578;47.658;9.922;2023-08-12T11:02:51;27.80;13.30
3136;DHT22;1578;47.658;9.922;2023-08-12T11:05:21;28.00;11.70
3136;DHT22;1578;47.658;9.922;2023-08-12T11:08:00;28.10;9.00
3136;DHT22;1578;47.658;9.922;2023-08-12T11:10:32;28.40;10.50
3136;DHT22;1578;47.658;9.922;2023-08-12T11:12:59;28.20;7.80
3136;DHT22;1578;47.658;9.922;2023-08-12T11:17:58;28.40;11.70
3136;DHT22;1578;47.658;9.922;2023-08-12T11:20:25;28.50;8.50
3136;DHT22;1578;47.658;9.922;2023-08-12T11:22:53;28.90;10.40
3136;DHT22;1578;47.658;9.922;2023-08-12T11:25:19;28.50;9.00
3136;DHT22;1578;47.658;9.922;2023-08-12T11:27:46;28.40;9.80
3136;DHT22;1578;47.658;9.922;2023-08-12T11:30:17;28.20;11.40
3136;DHT22;1578;47.658;9.922;2023-08-12T11:32:45;28.20;11.70
3136;DHT22;1578;47.658;9.922;2023-08-12T11:35:14;28.10;11.00
3136;DHT22;1578;47.658;9.922;2023-08-12T11:37:41;28.10;11.90
3136;DHT22;1578;47.658;9.922;2023-08-12T11:40:09;27.70;11.40
3136;DHT22;1578;47.658;9.922;2023-08-12T11:42:36;27.40;12.30
3136;DHT22;1578;47.658;9.922;2023-08-12T11:45:03;27.10;12.30
3136;DHT22;1578;47.658;9.922;2023-08-12T11:47:29;27.10;15.50
3136;DHT22;1578;47.658;9.922;2023-08-12T11:49:55;26.80;14.70
3136;DHT22;1578;47.658;9.922;2023-08-12T11:52:20;26.40;17.60
3136;DHT22;1578;47.658;9.922;2023-08-12T11:54:49;26.30;17.40
3136;DHT22;1578;47.658;9.922;2023-08-12T11:57:14;26.40;19.10
3136;DHT22;1578;47.658;9.922;2023-08-12T11:59:40;26.40;17.70
3136;DHT22;1578;47.658;9.922;2023-08-12T12:02:06;26.20;20.20
3136;DHT22;1578;47.658;9.922;2023-08-12T12:04:32;25.80;24.10
3136;DHT22;1578;47.658;9.922;2023-08-12T12:06:58;25.60;29.30
3136;DHT22;1578;47.658;9.922;2023-08-12T12:09:25;25.30;33.50
3136;DHT22;1578;47.658;9.922;2023-08-12T12:11:54;25.30;36.70
3136;DHT22;1578;47.658;9.922;2023-08-12T12:14:21;25.10;35.30
3136;DHT22;1578;47.658;9.922;2023-08-12T12:16:48;25.20;36.70
3136;DHT22;1578;47.658;9.922;2023-08-12T12:19:18;25.30;35.90
3136;DHT22;1578;47.658;9.922;2023-08-12T12:21:51;25.40;35.50
3136;DHT22;1578;47.658;9.922;2023-08-12T12:24:18;25.50;34.70
3136;DHT22;1578;47.658;9.922;2023-08-12T12:26:45;25.20;35.00
3136;DHT22;1578;47.658;9.922;2023-08-12T12:29:12;25.40;35.90
3136;DHT22;1578;47.658;9.922;2023-08-12T12:31:40;25.40;33.70
3136;DHT22;1578;47.658;9.922;2023-08-12T12:34:06;25.70;35.50
3136;DHT22;1578;47.658;9.922;2023-08-12T12:36:34;25.90;30.10
3136;DHT22;1578;47.658;9.922;2023-08-12T12:39:00;26.10;27.10
3136;DHT22;1578;47.658;9.922;2023-08-12T12:41:26;26.30;26.60
3136;DHT22;1578;47.658;9.922;2023-08-12T12:43:51;26.60;28.90
3136;DHT22;1578;47.658;9.922;2023-08-12T12:46:17;27.00;26.30
3136;DHT22;1578;47.658;9.922;2023-08-12T12:48:43;26.90;22.70
3136;DHT22;1578;47.658;9.922;2023-08-12T12:51:09;27.10;19.10
3136;DHT22;1578;47.658;9.922;2023-08-12T12:53:35;27.30;21.30
3136;DHT22;1578;47.658;9.922;2023-08-12T12:56:00;27.60;17.80
3136;DHT22;1578;47.658;9.922;2023-08-12T12:58:32;27.60;15.80
3136;DHT22;1578;47.658;9.922;2023-08-12T13:00:59;27.50;17.30
3136;DHT22;1578;47.658;9.922;2023-08-12T13:03:25;27.10;15.30
3136;DHT22;1578;47.658;9.922;2023-08-12T13:05:50;27.10;16.60
3136;DHT22;1578;47.658;9.922;2023-08-12T13:08:16;27.00;17.80
3136;DHT22;1578;47.658;9.922;2023-08-12T13:10:42;27.30;15.70
3136;DHT22;1578;47.658;9.922;2023-08-12T13:13:07;27.20;14.50
3136;DHT22;1578;47.658;9.922;2023-08-12T13:15:34;27.00;15.30
3136;DHT22;1578;47.658;9.922;2023-08-12T13:17:59;26.90;15.40
3136;DHT22;1578;47.658;9.922;2023-08-12T13:20:25;26.60;15.30
3136;DHT22;1578;47.658;9.922;2023-08-12T13:22:51;26.60;15.50
3136;DHT22;1578;47.658;9.922;2023-08-12T13:25:16;26.60;18.00
3136;DHT22;1578;47.658;9.922;2023-08-12T13:27:42;26.70;17.20
3136;DHT22;1578;47.658;9.922;2023-08-12T13:30:09;26.80;17.50
3136;DHT22;1578;47.658;9.922;2023-08-12T13:32:37;26.80;16.00
3136;DHT22;1578;47.658;9.922;2023-08-12T13:42:26;26.30;17.00
3136;DHT22;1578;47.658;9.922;2023-08-12T13:44:52;26.50;15.40
3136;DHT22;1578;47.658;9.922;2023-08-12T13:47:18;26.30;13.20
3136;DHT22;1578;47.658;9.922;2023-08-12T13:49:44;26.10;15.90
3136;DHT22;1578;47.658;9.922;2023-08-12T13:52:09;26.20;16.80
3136;DHT22;1578;47.658;9.922;2023-08-12T13:54:35;26.30;15.20
3136;DHT22;1578;47.658;9.922;2023-08-12T13:57:00;26.50;17.30
3136;DHT22;1578;47.658;9.922;2023-08-12T13:59:26;26.60;16.80
3136;DHT22;1578;47.658;9.922;2023-08-12T14:01:51;26.80;15.60
3136;DHT22;1578;47.658;9.922;2023-08-12T14:04:17;26.90;16.90
3136;DHT22;1578;47.658;9.922;2023-08-12T14:06:43;27.20;16.30
3136;DHT22;1578;47.658;9.922;2023-08-12T14:09:09;27.20;14.40
3136;DHT22;1578;47.658;9.922;2023-08-12T14:11:35;27.00;13.60
3136;DHT22;1578;47.658;9.922;2023-08-12T14:14:01;26.90;14.00
3136;DHT22;1578;47.658;9.922;2023-08-12T14:16:26;26.90;13.90
3136;DHT22;1578;47.658;9.922;2023-08-12T14:18:52;27.30;15.80
3136;DHT22;1578;47.658;9.922;2023-08-12T14:21:18;27.60;15.30
3136;DHT22;1578;47.658;9.922;2023-08-12T14:23:43;28.10;13.70
3136;DHT22;1578;47.658;9.922;2023-08-12T14:26:09;28.40;14.90
3136;DHT22;1578;47.658;9.922;2023-08-12T14:28:35;28.70;11.90
3136;DHT22;1578;47.658;9.922;2023-08-12T14:31:00;28.80;11.00
3136;DHT22;1578;47.658;9.922;2023-08-12T14:33:26;28.90;7.90
3136;DHT22;1578;47.658;9.922;2023-08-12T14:35:57;28.50;9.00
3136;DHT22;1578;47.658;9.922;2023-08-12T14:38:23;28.30;9.10
3136;DHT22;1578;47.658;9.922;2023-08-12T14:40:49;28.30;8.70
3136;DHT22;1578;47.658;9.922;2023-08-12T14:43:15;28.10;9.20
3136;DHT22;1578;47.658;9.922;2023-08-12T14:45:41;28.30;9.00
3136;DHT22;1578;47.658;9.922;2023-08-12T14:48:06;28.50;7.00
3136;DHT22;1578;47.658;9.922;2023-08-12T14:50:32;28.80;8.90
3136;DHT22;1578;47.658;9.922;2023-08-12T14:52:58;28.80;8.80
3136;DHT22;1578;47.658;9.922;2023-08-12T14:55:24;29.00;9.20
3136;DHT22;1578;47.658;9.922;2023-08-12T14:57:50;29.30;9.10
3136;DHT22;1578;47.658;9.922;2023-08-12T15:00:16;29.60;8.10
3136;DHT22;1578;47.658;9.922;2023-08-12T15:02:42;29.70;2.90
3136;DHT22;1578;47.658;9.922;2023-08-12T15:05:07;29.50;2.70
3136;DHT22;1578;47.658;9.922;2023-08-12T15:07:33;29.40;1.00
3136;DHT22;1578;47.658;9.922;2023-08-12T15:09:59;29.00;4.00
3136;DHT22;1578;47.658;9.922;2023-08-12T15:12:25;29.10;4.00
3136;DHT22;1578;47.658;9.922;2023-08-12T15:14:52;29.00;1.00
3136;DHT22;1578;47.658;9.922;2023-08-12T15:17:18;28.90;2.20
3136;DHT22;1578;47.658;9.922;2023-08-12T15:19:44;29.10;1.40
3136;DHT22;1578;47.658;9.922;2023-08-12T15:22:09;29.10;1.00
3136;DHT22;1578;47.658;9.922;2023-08-12T15:24:35;29.20;2.90
3136;DHT22;1578;47.658;9.922;2023-08-12T15:27:00;29.30;3.50
3136;DHT22;1578;47.658;9.922;2023-08-12T15:29:26;29.40;3.50
3136;DHT22;1578;47.658;9.922;2023-08-12T15:31:51;29.10;2.10
3136;DHT22;1578;47.658;9.922;2023-08-12T15:34:17;28.60;3.40
3136;DHT22;1578;47.658;9.922;2023-08-12T15:36:43;28.60;6.40
3136;DHT22;1578;47.658;9.922;2023-08-12T15:39:10;28.60;5.80
3136;DHT22;1578;47.658;9.922;2023-08-12T15:41:41;28.40;4.60
3136;DHT22;1578;47.658;9.922;2023-08-12T15:44:09;28.20;4.90
3136;DHT22;1578;47.658;9.922;2023-08-12T15:46:35;28.00;3.40
3136;DHT22;1578;47.658;9.922;2023-08-12T15:49:01;27.90;4.80
3136;DHT22;1578;47.658;9.922;2023-08-12T15:51:27;28.00;6.00
3136;DHT22;1578;47.658;9.922;2023-08-12T15:53:53;28.40;5.00
3136;DHT22;1578;47.658;9.922;2023-08-12T15:56:19;28.50;5.10
3136;DHT22;1578;47.658;9.922;2023-08-12T15:58:44;28.60;4.50
3136;DHT22;1578;47.658;9.922;2023-08-12T16:01:10;28.50;4.10
3136;DHT22;1578;47.658;9.922;2023-08-12T16:03:36;28.20;3.30
3136;DHT22;1578;47.658;9.922;2023-08-12T16:06:02;27.80;5.80
3136;DHT22;1578;47.658;9.922;2023-08-12T16:08:28;27.80;6.70
3136;DHT22;1578;47.658;9.922;2023-08-12T16:10:54;28.00;7.50
3136;DHT22;1578;47.658;9.922;2023-08-12T16:13:20;28.40;6.00
3136;DHT22;1578;47.658;9.922;2023-08-12T16:15:46;28.70;7.20